Time;durP1;ratioP1;P1;durP2;ratioP2;P2;SDS_P1;SDS_P2;PMS_P1;PMS_P2;Temp;Humidity;BMP_temperature;BMP_pressure;BME280_temperature;BME280_humidity;BME280_pressure;Samples;Min_cycle;Max_cycle;Signal;HPM_P1;HPM_P2
2023/01/14 21:25:17;;;;;;;28.80;8.10;;;;;;;0.73;71.08;100084.11;78325;1304;3051120;-65
2023/01/14 21:27:44;;;;;;;25.50;8.40;;;;;;;0.68;71.06;100086.40;78190;1298;3012935;-65
2023/01/14 21:30:13;;;;;;;22.50;6.80;;;;;;;0.69;71.51;100086.92;79023;1301;3013781;-66
2023/01/14 21:32:40;;;;;;;22.50;6.50;;;;;;;0.67;71.20;100084.17;79547;1299;3011527;-68
2023/01/14 21:35:09;;;;;;;27.00;7.00;;;;;;;0.66;71.12;100084.86;79429;1298;3011891;-67
2023/01/14 21:37:39;;;;;;;21.00;6.70;;;;;;;0.74;71.13;100083.59;78141;1301;3050840;-65
2023/01/14 21:40:10;;;;;;;18.50;6.90;;;;;;;0.66;70.81;100085.92;79775;1297;3013303;-65
2023/01/14 21:45:26;;;;;;;26.70;7.50;;;;;;;0.51;71.41;100083.13;78332;1301;3070178;-66
2023/01/14 21:47:53;;;;;;;26.60;7.20;;;;;;;0.54;71.78;100075.00;79274;1298;3015778;-62
2023/01/14 21:50:29;;;;;;;22.70;7.50;;;;;;;0.64;71.28;100075.41;79260;1297;3012952;-63
2023/01/14 21:53:02;;;;;;;24.00;7.00;;;;;;;0.61;71.42;100074.23;80673;1298;3055948;-64
2023/01/14 21:55:33;;;;;;;25.30;6.80;;;;;;;0.66;70.83;100076.27;81903;1298;3011143;-64
2023/01/14 21:58:01;;;;;;;15.90;6.50;;;;;;;0.60;71.14;100075.79;80670;1300;3052100;-65
2023/01/14 22:00:28;;;;;;;23.50;7.10;;;;;;;0.65;71.17;100072.11;81968;1298;3012849;-68
2023/01/14 22:02:54;;;;;;;30.30;7.80;;;;;;;0.62;71.08;100074.05;81955;1297;3011467;-66
2023/01/14 22:05:22;;;;;;;22.40;6.90;;;;;;;0.62;71.47;100072.66;80633;1298;3026075;-67
2023/01/14 22:07:56;;;;;;;20.40;7.40;;;;;;;0.53;71.40;100072.58;81975;1298;3012430;-65
2023/01/14 22:10:24;;;;;;;25.50;6.60;;;;;;;0.50;71.49;100077.44;80738;1296;3049565;-64
2023/01/14 22:12:51;;;;;;;29.20;8.10;;;;;;;0.46;71.88;100079.02;81972;1297;3013514;-64
2023/01/14 22:15:18;;;;;;;21.20;7.10;;;;;;;0.38;71.98;100079.27;81978;1299;3011186;-64
2023/01/14 22:17:47;;;;;;;22.40;6.80;;;;;;;0.38;72.18;100077.39;80707;1298;3026581;-64
2023/01/14 22:20:14;;;;;;;25.70;7.40;;;;;;;0.46;72.01;100081.27;81994;1298;3010963;-66
2023/01/14 22:22:40;;;;;;;19.30;7.60;;;;;;;0.49;71.68;100078.14;82008;1298;3011436;-68
2023/01/14 22:25:12;;;;;;;23.80;6.70;;;;;;;0.49;71.83;100076.77;80654;1296;3049345;-67
2023/01/14 22:27:38;;;;;;;17.90;7.20;;;;;;;0.53;71.48;100076.03;81945;1301;3013075;-65
2023/01/14 22:30:06;;;;;;;17.00;6.80;;;;;;;0.48;71.82;100076.09;81925;1301;3011873;-64
2023/01/14 22:32:35;;;;;;;21.10;7.00;;;;;;;0.42;71.79;100074.23;80656;1299;3050461;-66
2023/01/14 22:35:02;;;;;;;28.40;8.10;;;;;;;0.42;71.92;100073.21;81961;1298;3012472;-65
2023/01/14 22:37:28;;;;;;;18.40;7.00;;;;;;;0.33;71.65;100068.63;81936;1296;3011425;-64
2023/01/14 22:39:56;;;;;;;18.70;7.50;;;;;;;0.38;72.26;100069.97;80645;1298;3025876;-65
2023/01/14 22:42:23;;;;;;;22.30;7.60;;;;;;;0.42;71.88;100067.52;81944;1298;3012379;-63
2023/01/14 22:44:50;;;;;;;22.50;7.40;;;;;;;0.46;71.74;100066.27;81919;1301;3011427;-64
2023/01/14 22:47:18;;;;;;;26.70;7.60;;;;;;;0.42;71.94;100066.49;80672;1298;3050813;-64
2023/01/14 22:49:44;;;;;;;22.60;6.50;;;;;;;0.37;71.87;100060.85;81948;1297;3013404;-61
2023/01/14 22:52:11;;;;;;;23.30;7.00;;;;;;;0.34;71.99;100061.23;81928;1297;3011208;-65
2023/01/14 22:54:38;;;;;;;21.70;7.30;;;;;;;0.40;72.03;100062.89;80649;1299;3026507;-64
2023/01/14 22:57:06;;;;;;;22.30;6.40;;;;;;;0.42;71.58;100063.89;81955;1298;3019133;-67
2023/01/14 22:59:35;;;;;;;16.00;6.70;;;;;;;0.47;71.64;100064.70;81877;1301;3011295;-64
2023/01/14 23:02:03;;;;;;;23.50;6.30;;;;;;;0.45;71.45;100063.36;80674;1297;3050050;-67
2023/01/14 23:04:33;;;;;;;18.60;7.20;;;;;;;0.42;71.84;100065.11;81934;1298;3011368;-66
2023/01/14 23:07:02;;;;;;;23.00;7.30;;;;;;;0.41;71.54;100063.73;81394;1299;3011101;-64
2023/01/14 23:09:29;;;;;;;27.80;8.10;;;;;;;0.36;71.86;100063.77;81959;1301;3013196;-64
2023/01/14 23:11:56;;;;;;;19.80;6.30;;;;;;;0.43;71.69;100060.79;81903;1301;3011109;-66
2023/01/14 23:14:25;;;;;;;15.50;6.80;;;;;;;0.43;71.73;100063.71;80689;1298;3051516;-62
2023/01/14 23:19:39;;;;;;;25.10;6.50;;;;;;;0.43;71.56;100070.95;80715;1298;3051519;-63
2023/01/14 23:24:51;;;;;;;17.30;6.00;;;;;;;0.52;71.66;100071.21;80604;1301;3052601;-63
2023/01/14 23:27:18;;;;;;;27.50;6.40;;;;;;;0.50;71.32;100075.55;81935;1301;3018309;-62
2023/01/14 23:29:44;;;;;;;20.00;7.70;;;;;;;0.49;71.27;100075.73;81908;1298;3011703;-63
2023/01/14 23:32:13;;;;;;;16.10;6.70;;;;;;;0.40;71.35;100072.20;80634;1298;3026576;-65
2023/01/14 23:34:39;;;;;;;18.70;7.30;;;;;;;0.38;71.58;100074.96;81910;1301;3013271;-64
2023/01/14 23:37:05;;;;;;;17.70;7.00;;;;;;;0.35;71.12;100076.20;81944;1298;3011334;-63
2023/01/14 23:39:33;;;;;;;22.20;6.90;;;;;;;0.34;71.53;100076.72;80646;1298;3053498;-64
2023/01/14 23:42:00;;;;;;;18.80;7.10;;;;;;;0.33;71.57;100078.11;81928;1301;3012394;-63
2023/01/14 23:44:26;;;;;;;14.40;6.00;;;;;;;0.33;71.94;100080.86;81920;1298;3011570;-63
2023/01/14 23:46:54;;;;;;;23.70;7.50;;;;;;;0.38;71.57;100082.20;80680;1301;3025969;-61
2023/01/14 23:49:21;;;;;;;14.60;6.60;;;;;;;0.34;71.58;100085.17;81931;1299;3018982;-63
2023/01/14 23:51:48;;;;;;;21.60;6.90;;;;;;;0.34;71.76;100081.55;81894;1297;3011265;-63
2023/01/14 23:54:15;;;;;;;20.90;6.30;;;;;;;0.36;71.78;100078.26;80638;1298;3026180;-63
2023/01/14 23:56:42;;;;;;;21.90;7.20;;;;;;;0.32;71.40;100076.58;81902;1297;3018787;-63
2023/01/14 23:59:08;;;;;;;21.60;6.60;;;;;;;0.35;71.26;100077.74;81904;1300;3011568;-63
